sensor_id;sensor_type;location;lat;lon;timestamp;temperature;humidity
16929;DHT22;8581;47.334;11.190;2023-04-01T00:01:38;3.80;99.90
16929;DHT22;8581;47.334;11.190;2023-04-01T00:04:09;4.00;99.90
16929;DHT22;8581;47.334;11.190;2023-04-01T00:06:41;3.70;99.90
16929;DHT22;8581;47.334;11.190;2023-04-01T00:09:13;3.30;99.90
16929;DHT22;8581;47.334;11.190;2023-04-01T00:11:44;3.30;99.90
16929;DHT22;8581;47.334;11.190;2023-04-01T00:14:16;3.20;99.90
16929;DHT22;8581;47.334;11.190;2023-04-01T00:16:47;3.00;99.90
16929;DHT22;8581;47.334;11.190;2023-04-01T00:19:19;2.90;99.90
16929;DHT22;8581;47.334;11.190;2023-04-01T00:21:51;2.70;99.90
16929;DHT22;8581;47.334;11.190;2023-04-01T00:24:22;2.60;99.90
16929;DHT22;8581;47.334;11.190;2023-04-01T00:26:54;2.50;99.90
16929;DHT22;8581;47.334;11.190;2023-04-01T00:29:26;2.40;99.90
16929;DHT22;8581;47.334;11.190;2023-04-01T00:31:58;2.40;99.90
16929;DHT22;8581;47.334;11.190;2023-04-01T00:34:29;2.20;99.90
16929;DHT22;8581;47.334;11.190;2023-04-01T00:37:01;2.30;99.90
16929;DHT22;8581;47.334;11.190;2023-04-01T00:39:33;2.30;99.90
16929;DHT22;8581;47.334;11.190;2023-04-01T00:42:04;2.20;99.90
16929;DHT22;8581;47.334;11.190;2023-04-01T00:44:36;2.10;99.90
16929;DHT22;8581;47.334;11.190;2023-04-01T00:47:07;2.20;99.90
16929;DHT22;8581;47.334;11.190;2023-04-01T00:49:40;2.20;99.90
16929;DHT22;8581;47.334;11.190;2023-04-01T00:52:11;2.30;99.90
16929;DHT22;8581;47.334;11.190;2023-04-01T00:54:43;2.30;99.90
16929;DHT22;8581;47.334;11.190;2023-04-01T00:57:19;2.10;99.90
16929;DHT22;8581;47.334;11.190;2023-04-01T00:59:49;1.90;99.90
16929;DHT22;8581;47.334;11.190;2023-04-01T01:02:21;2.00;99.90
16929;DHT22;8581;47.334;11.190;2023-04-01T01:04:52;1.90;99.90
16929;DHT22;8581;47.334;11.190;2023-04-01T01:07:33;1.90;99.90
16929;DHT22;8581;47.334;11.190;2023-04-01T01:10:17;2.00;99.90
16929;DHT22;8581;47.334;11.190;2023-04-01T01:15:57;2.20;99.90
16929;DHT22;8581;47.334;11.190;2023-04-01T01:22:02;2.00;99.90
16929;DHT22;8581;47.334;11.190;2023-04-01T01:24:40;2.00;99.90
16929;DHT22;8581;47.334;11.190;2023-04-01T01:27:16;2.10;99.90
16929;DHT22;8581;47.334;11.190;2023-04-01T01:29:59;2.40;99.90
16929;DHT22;8581;47.334;11.190;2023-04-01T01:32:38;2.30;99.90
16929;DHT22;8581;47.334;11.190;2023-04-01T01:35:33;2.40;99.90
16929;DHT22;8581;47.334;11.190;2023-04-01T01:38:04;2.50;99.90
16929;DHT22;8581;47.334;11.190;2023-04-01T01:40:35;2.30;99.90
16929;DHT22;8581;47.334;11.190;2023-04-01T01:43:08;2.30;99.90
16929;DHT22;8581;47.334;11.190;2023-04-01T01:45:39;2.10;99.90
16929;DHT22;8581;47.334;11.190;2023-04-01T01:48:09;2.20;99.90
16929;DHT22;8581;47.334;11.190;2023-04-01T01:50:41;2.10;99.90
16929;DHT22;8581;47.334;11.190;2023-04-01T01:53:13;2.10;99.90
16929;DHT22;8581;47.334;11.190;2023-04-01T01:55:45;2.20;99.90
16929;DHT22;8581;47.334;11.190;2023-04-01T01:58:22;2.20;99.90
16929;DHT22;8581;47.334;11.190;2023-04-01T02:00:54;2.20;99.90
16929;DHT22;8581;47.334;11.190;2023-04-01T02:03:25;2.10;99.90
16929;DHT22;8581;47.334;11.190;2023-04-01T02:05:57;2.20;99.90
16929;DHT22;8581;47.334;11.190;2023-04-01T02:08:31;2.20;99.90
16929;DHT22;8581;47.334;11.190;2023-04-01T02:11:04;2.40;99.90
16929;DHT22;8581;47.334;11.190;2023-04-01T02:13:39;2.40;99.90
16929;DHT22;8581;47.334;11.190;2023-04-01T02:16:13;2.40;99.90
16929;DHT22;8581;47.334;11.190;2023-04-01T02:18:43;2.40;99.90
16929;DHT22;8581;47.334;11.190;2023-04-01T02:21:16;2.40;99.90
16929;DHT22;8581;47.334;11.190;2023-04-01T02:23:47;2.40;99.90
16929;DHT22;8581;47.334;11.190;2023-04-01T02:26:18;2.30;99.90
16929;DHT22;8581;47.334;11.190;2023-04-01T02:28:50;2.40;99.90
16929;DHT22;8581;47.334;11.190;2023-04-01T02:31:21;2.50;99.90
16929;DHT22;8581;47.334;11.190;2023-04-01T02:33:54;2.50;99.90
16929;DHT22;8581;47.334;11.190;2023-04-01T02:36:25;2.40;99.90
16929;DHT22;8581;47.334;11.190;2023-04-01T02:38:56;2.70;99.90
16929;DHT22;8581;47.334;11.190;2023-04-01T02:41:28;2.90;99.90
16929;DHT22;8581;47.334;11.190;2023-04-01T02:44:00;2.60;99.90
16929;DHT22;8581;47.334;11.190;2023-04-01T02:46:31;2.80;99.90
16929;DHT22;8581;47.334;11.190;2023-04-01T02:49:03;2.90;99.90
16929;DHT22;8581;47.334;11.190;2023-04-01T02:51:34;2.90;99.90
16929;DHT22;8581;47.334;11.190;2023-04-01T02:54:06;2.90;99.90
16929;DHT22;8581;47.334;11.190;2023-04-01T02:56:37;3.00;99.90
16929;DHT22;8581;47.334;11.190;2023-04-01T02:59:09;3.00;99.90
16929;DHT22;8581;47.334;11.190;2023-04-01T03:01:41;3.20;99.90
16929;DHT22;8581;47.334;11.190;2023-04-01T03:04:12;3.30;99.90
16929;DHT22;8581;47.334;11.190;2023-04-01T03:06:44;3.40;99.90
16929;DHT22;8581;47.334;11.190;2023-04-01T03:09:15;3.50;99.90
16929;DHT22;8581;47.334;11.190;2023-04-01T03:11:47;3.50;99.90
16929;DHT22;8581;47.334;11.190;2023-04-01T03:14:19;3.50;99.90
16929;DHT22;8581;47.334;11.190;2023-04-01T03:16:50;3.60;99.90
16929;DHT22;8581;47.334;11.190;2023-04-01T03:19:22;3.70;99.90
16929;DHT22;8581;47.334;11.190;2023-04-01T03:21:53;3.80;99.90
16929;DHT22;8581;47.334;11.190;2023-04-01T03:24:25;3.70;99.90
16929;DHT22;8581;47.334;11.190;2023-04-01T03:26:57;3.60;99.90
16929;DHT22;8581;47.334;11.190;2023-04-01T03:29:28;3.50;99.90
16929;DHT22;8581;47.334;11.190;2023-04-01T03:32:00;3.40;99.90
16929;DHT22;8581;47.334;11.190;2023-04-01T03:34:31;3.40;99.90
16929;DHT22;8581;47.334;11.190;2023-04-01T03:37:03;3.60;99.90
16929;DHT22;8581;47.334;11.190;2023-04-01T03:39:35;3.60;99.90
16929;DHT22;8581;47.334;11.190;2023-04-01T03:42:06;3.70;99.90
16929;DHT22;8581;47.334;11.190;2023-04-01T03:44:38;3.60;99.90
16929;DHT22;8581;47.334;11.190;2023-04-01T03:47:09;3.60;99.90
16929;DHT22;8581;47.334;11.190;2023-04-01T03:49:41;3.60;99.90
16929;DHT22;8581;47.334;11.190;2023-04-01T03:52:13;3.60;99.90
16929;DHT22;8581;47.334;11.190;2023-04-01T03:54:44;3.70;99.90
16929;DHT22;8581;47.334;11.190;2023-04-01T03:57:16;3.80;99.90
16929;DHT22;8581;47.334;11.190;2023-04-01T03:59:47;3.70;99.90
16929;DHT22;8581;47.334;11.190;2023-04-01T04:02:19;3.90;99.90
16929;DHT22;8581;47.334;11.190;2023-04-01T04:04:51;3.80;99.90
16929;DHT22;8581;47.334;11.190;2023-04-01T04:07:22;4.00;99.90
16929;DHT22;8581;47.334;11.190;2023-04-01T04:09:54;3.70;99.90
16929;DHT22;8581;47.334;11.190;2023-04-01T04:12:25;3.80;99.90
16929;DHT22;8581;47.334;11.190;2023-04-01T04:14:57;3.90;99.90
16929;DHT22;8581;47.334;11.190;2023-04-01T04:17:29;4.00;99.90
16929;DHT22;8581;47.334;11.190;2023-04-01T04:20:00;3.90;99.90
16929;DHT22;8581;47.334;11.190;2023-04-01T04:22:32;3.50;99.90
16929;DHT22;8581;47.334;11.190;2023-04-01T04:25:04;3.20;99.90
16929;DHT22;8581;47.334;11.190;2023-04-01T04:27:36;3.40;99.90
16929;DHT22;8581;47.334;11.190;2023-04-01T04:30:08;3.50;99.90
16929;DHT22;8581;47.334;11.190;2023-04-01T04:32:40;3.30;99.90
16929;DHT22;8581;47.334;11.190;2023-04-01T04:35:12;3.20;99.90
16929;DHT22;8581;47.334;11.190;2023-04-01T04:37:43;3.20;99.90
16929;DHT22;8581;47.334;11.190;2023-04-01T04:40:15;3.30;99.90
16929;DHT22;8581;47.334;11.190;2023-04-01T04:42:46;3.30;99.90
16929;DHT22;8581;47.334;11.190;2023-04-01T04:45:18;3.40;99.90
16929;DHT22;8581;47.334;11.190;2023-04-01T04:47:50;3.50;99.90
16929;DHT22;8581;47.334;11.190;2023-04-01T04:50:21;3.50;99.90
16929;DHT22;8581;47.334;11.190;2023-04-01T04:52:53;3.50;99.90
16929;DHT22;8581;47.334;11.190;2023-04-01T04:55:24;3.30;99.90
16929;DHT22;8581;47.334;11.190;2023-04-01T04:57:56;3.20;99.90
16929;DHT22;8581;47.334;11.190;2023-04-01T05:00:28;3.10;99.90
16929;DHT22;8581;47.334;11.190;2023-04-01T05:02:59;3.20;99.90
16929;DHT22;8581;47.334;11.190;2023-04-01T05:05:31;3.20;99.90
16929;DHT22;8581;47.334;11.190;2023-04-01T05:08:03;3.30;99.90
16929;DHT22;8581;47.334;11.190;2023-04-01T05:10:34;3.30;99.90
16929;DHT22;8581;47.334;11.190;2023-04-01T05:13:06;3.30;99.90
16929;DHT22;8581;47.334;11.190;2023-04-01T05:15:37;3.30;99.90
16929;DHT22;8581;47.334;11.190;2023-04-01T05:18:09;3.60;99.90
16929;DHT22;8581;47.334;11.190;2023-04-01T05:20:45;3.50;99.90
16929;DHT22;8581;47.334;11.190;2023-04-01T05:23:12;3.70;99.90
16929;DHT22;8581;47.334;11.190;2023-04-01T05:25:44;3.70;99.90
16929;DHT22;8581;47.334;11.190;2023-04-01T05:28:15;3.90;99.90
16929;DHT22;8581;47.334;11.190;2023-04-01T05:30:47;4.00;99.90
16929;DHT22;8581;47.334;11.190;2023-04-01T05:33:18;4.00;99.90
16929;DHT22;8581;47.334;11.190;2023-04-01T05:35:50;4.00;99.90
16929;DHT22;8581;47.334;11.190;2023-04-01T05:38:22;4.00;99.90
16929;DHT22;8581;47.334;11.190;2023-04-01T05:40:58;4.00;99.90
16929;DHT22;8581;47.334;11.190;2023-04-01T05:43:25;4.00;99.90
16929;DHT22;8581;47.334;11.190;2023-04-01T05:45:57;4.00;99.90
16929;DHT22;8581;47.334;11.190;2023-04-01T05:48:28;4.00;99.90
16929;DHT22;8581;47.334;11.190;2023-04-01T05:51:00;4.00;99.90
16929;DHT22;8581;47.334;11.190;2023-04-01T05:53:31;4.20;99.90
16929;DHT22;8581;47.334;11.190;2023-04-01T05:56:03;4.30;99.90
16929;DHT22;8581;47.334;11.190;2023-04-01T05:58:35;4.30;99.90
16929;DHT22;8581;47.334;11.190;2023-04-01T06:01:07;4.40;99.90
16929;DHT22;8581;47.334;11.190;2023-04-01T06:03:38;4.30;99.90
16929;DHT22;8581;47.334;11.190;2023-04-01T06:06:14;4.50;99.90
16929;DHT22;8581;47.334;11.190;2023-04-01T06:08:44;4.50;99.90
16929;DHT22;8581;47.334;11.190;2023-04-01T06:14:31;4.80;99.90
16929;DHT22;8581;47.334;11.190;2023-04-01T06:17:20;4.60;99.90
16929;DHT22;8581;47.334;11.190;2023-04-01T06:22:39;4.40;99.90
16929;DHT22;8581;47.334;11.190;2023-04-01T06:26:30;4.60;99.90
16929;DHT22;8581;47.334;11.190;2023-04-01T06:28:23;4.70;99.90
16929;DHT22;8581;47.334;11.190;2023-04-01T06:31:02;4.30;99.90
16929;DHT22;8581;47.334;11.190;2023-04-01T06:37:08;4.40;99.90
16929;DHT22;8581;47.334;11.190;2023-04-01T06:42:59;4.40;99.90
16929;DHT22;8581;47.334;11.190;2023-04-01T06:45:49;4.20;99.90
16929;DHT22;8581;47.334;11.190;2023-04-01T06:48:30;4.20;99.90
16929;DHT22;8581;47.334;11.190;2023-04-01T06:54:01;4.10;99.90
16929;DHT22;8581;47.334;11.190;2023-04-01T06:56:28;4.20;99.90
16929;DHT22;8581;47.334;11.190;2023-04-01T06:59:02;4.50;99.90
16929;DHT22;8581;47.334;11.190;2023-04-01T07:01:34;4.60;99.90
16929;DHT22;8581;47.334;11.190;2023-04-01T07:06:57;5.00;99.90
16929;DHT22;8581;47.334;11.190;2023-04-01T07:09:31;5.50;99.90
16929;DHT22;8581;47.334;11.190;2023-04-01T07:12:06;5.90;99.90
16929;DHT22;8581;47.334;11.190;2023-04-01T07:14:36;6.10;99.90
16929;DHT22;8581;47.334;11.190;2023-04-01T07:17:12;6.00;99.90
16929;DHT22;8581;47.334;11.190;2023-04-01T07:19:52;5.90;99.90
16929;DHT22;8581;47.334;11.190;2023-04-01T07:22:31;6.10;99.90
16929;DHT22;8581;47.334;11.190;2023-04-01T07:25:04;6.00;99.90
16929;DHT22;8581;47.334;11.190;2023-04-01T07:27:33;6.10;99.90
16929;DHT22;8581;47.334;11.190;2023-04-01T07:30:12;6.30;99.90
16929;DHT22;8581;47.334;11.190;2023-04-01T07:32:44;6.30;99.90
16929;DHT22;8581;47.334;11.190;2023-04-01T07:35:26;6.30;99.90
16929;DHT22;8581;47.334;11.190;2023-04-01T07:38:01;6.90;99.90
16929;DHT22;8581;47.334;11.190;2023-04-01T07:43:39;6.90;99.90
16929;DHT22;8581;47.334;11.190;2023-04-01T07:46:26;6.80;99.90
16929;DHT22;8581;47.334;11.190;2023-04-01T07:49:17;6.80;99.90
16929;DHT22;8581;47.334;11.190;2023-04-01T07:52:05;6.20;99.90
16929;DHT22;8581;47.334;11.190;2023-04-01T07:54:38;6.30;99.90
16929;DHT22;8581;47.334;11.190;2023-04-01T07:57:21;6.20;99.90
16929;DHT22;8581;47.334;11.190;2023-04-01T08:02:59;6.60;99.90
16929;DHT22;8581;47.334;11.190;2023-04-01T08:05:28;6.90;99.90
16929;DHT22;8581;47.334;11.190;2023-04-01T08:08:17;6.20;99.90
16929;DHT22;8581;47.334;11.190;2023-04-01T08:10:57;6.10;99.90
16929;DHT22;8581;47.334;11.190;2023-04-01T08:13:30;6.60;99.90
16929;DHT22;8581;47.334;11.190;2023-04-01T08:16:18;6.90;99.90
16929;DHT22;8581;47.334;11.190;2023-04-01T08:18:57;7.00;99.90
16929;DHT22;8581;47.334;11.190;2023-04-01T08:21:35;7.50;99.90
16929;DHT22;8581;47.334;11.190;2023-04-01T08:24:10;7.30;99.90
16929;DHT22;8581;47.334;11.190;2023-04-01T08:26:39;7.80;99.90
16929;DHT22;8581;47.334;11.190;2023-04-01T08:29:12;8.30;99.90
16929;DHT22;8581;47.334;11.190;2023-04-01T08:32:21;8.80;99.90
16929;DHT22;8581;47.334;11.190;2023-04-01T08:34:36;8.70;99.90
16929;DHT22;8581;47.334;11.190;2023-04-01T08:37:13;8.90;99.90
16929;DHT22;8581;47.334;11.190;2023-04-01T08:39:48;9.30;99.90
16929;DHT22;8581;47.334;11.190;2023-04-01T08:42:31;9.70;99.90
16929;DHT22;8581;47.334;11.190;2023-04-01T08:53:34;10.60;99.90
16929;DHT22;8581;47.334;11.190;2023-04-01T09:08:50;10.20;99.90
16929;DHT22;8581;47.334;11.190;2023-04-01T09:11:13;9.90;99.90
16929;DHT22;8581;47.334;11.190;2023-04-01T09:16:57;10.20;99.90
16929;DHT22;8581;47.334;11.190;2023-04-01T09:19:54;11.20;99.90
16929;DHT22;8581;47.334;11.190;2023-04-01T09:22:42;11.80;99.90
16929;DHT22;8581;47.334;11.190;2023-04-01T09:26:08;12.00;99.90
16929;DHT22;8581;47.334;11.190;2023-04-01T09:32:02;12.20;99.90
16929;DHT22;8581;47.334;11.190;2023-04-01T09:40:15;12.70;99.90
16929;DHT22;8581;47.334;11.190;2023-04-01T09:43:39;13.00;99.90
16929;DHT22;8581;47.334;11.190;2023-04-01T09:46:23;13.40;99.90
16929;DHT22;8581;47.334;11.190;2023-04-01T09:49:20;14.00;99.90
16929;DHT22;8581;47.334;11.190;2023-04-01T09:51:59;14.00;99.90
16929;DHT22;8581;47.334;11.190;2023-04-01T09:54:36;13.90;99.90
16929;DHT22;8581;47.334;11.190;2023-04-01T09:57:10;13.10;99.90
16929;DHT22;8581;47.334;11.190;2023-04-01T09:59:47;13.80;99.90
16929;DHT22;8581;47.334;11.190;2023-04-01T10:05:25;14.20;99.90
16929;DHT22;8581;47.334;11.190;2023-04-01T10:08:10;13.70;99.90
16929;DHT22;8581;47.334;11.190;2023-04-01T10:10:48;13.10;99.90
16929;DHT22;8581;47.334;11.190;2023-04-01T10:13:51;13.50;99.90
16929;DHT22;8581;47.334;11.190;2023-04-01T10:16:52;14.50;99.90
16929;DHT22;8581;47.334;11.190;2023-04-01T10:22:16;15.70;99.90
16929;DHT22;8581;47.334;11.190;2023-04-01T10:28:02;14.40;99.90
16929;DHT22;8581;47.334;11.190;2023-04-01T10:30:38;14.60;99.90
16929;DHT22;8581;47.334;11.190;2023-04-01T10:33:35;14.50;98.60
16929;DHT22;8581;47.334;11.190;2023-04-01T10:41:54;15.00;98.40
16929;DHT22;8581;47.334;11.190;2023-04-01T10:47:36;16.70;96.80
16929;DHT22;8581;47.334;11.190;2023-04-01T10:50:35;16.60;97.10
16929;DHT22;8581;47.334;11.190;2023-04-01T10:53:30;16.10;96.40
16929;DHT22;8581;47.334;11.190;2023-04-01T10:56:07;15.80;96.00
16929;DHT22;8581;47.334;11.190;2023-04-01T10:58:51;15.20;97.10
16929;DHT22;8581;47.334;11.190;2023-04-01T11:01:27;14.10;97.60
16929;DHT22;8581;47.334;11.190;2023-04-01T11:04:11;13.30;99.90
16929;DHT22;8581;47.334;11.190;2023-04-01T11:06:41;13.60;99.90
16929;DHT22;8581;47.334;11.190;2023-04-01T11:12:29;14.70;97.40
16929;DHT22;8581;47.334;11.190;2023-04-01T11:15:17;13.90;98.40
16929;DHT22;8581;47.334;11.190;2023-04-01T11:18:00;14.40;99.90
16929;DHT22;8581;47.334;11.190;2023-04-01T11:20:38;15.90;96.00
16929;DHT22;8581;47.334;11.190;2023-04-01T11:26:02;17.30;97.70
16929;DHT22;8581;47.334;11.190;2023-04-01T11:31:37;16.70;94.90
16929;DHT22;8581;47.334;11.190;2023-04-01T11:37:15;14.40;96.90
16929;DHT22;8581;47.334;11.190;2023-04-01T11:40:28;14.90;98.00
16929;DHT22;8581;47.334;11.190;2023-04-01T11:42:43;15.30;96.70
16929;DHT22;8581;47.334;11.190;2023-04-01T11:45:46;15.00;97.20
16929;DHT22;8581;47.334;11.190;2023-04-01T11:48:28;14.20;98.20
16929;DHT22;8581;47.334;11.190;2023-04-01T11:51:04;14.30;97.70
16929;DHT22;8581;47.334;11.190;2023-04-01T11:53:42;13.80;99.20
16929;DHT22;8581;47.334;11.190;2023-04-01T12:02:29;13.40;98.80
16929;DHT22;8581;47.334;11.190;2023-04-01T12:05:15;14.70;96.40
16929;DHT22;8581;47.334;11.190;2023-04-01T12:11:00;14.70;97.90
16929;DHT22;8581;47.334;11.190;2023-04-01T12:16:18;12.30;99.60
16929;DHT22;8581;47.334;11.190;2023-04-01T12:18:57;12.30;99.70
16929;DHT22;8581;47.334;11.190;2023-04-01T12:21:36;11.60;99.90
16929;DHT22;8581;47.334;11.190;2023-04-01T12:25:03;11.80;99.90
16929;DHT22;8581;47.334;11.190;2023-04-01T12:30:18;11.30;99.90
16929;DHT22;8581;47.334;11.190;2023-04-01T12:32:50;11.20;99.90
16929;DHT22;8581;47.334;11.190;2023-04-01T12:35:21;11.30;99.90
16929;DHT22;8581;47.334;11.190;2023-04-01T12:38:10;11.70;99.90
16929;DHT22;8581;47.334;11.190;2023-04-01T12:40:44;11.80;99.90
16929;DHT22;8581;47.334;11.190;2023-04-01T12:43:20;11.90;99.90
16929;DHT22;8581;47.334;11.190;2023-04-01T12:46:03;11.90;99.90
16929;DHT22;8581;47.334;11.190;2023-04-01T12:48:55;11.70;99.90
16929;DHT22;8581;47.334;11.190;2023-04-01T12:52:34;12.00;99.90
16929;DHT22;8581;47.334;11.190;2023-04-01T12:57:07;11.10;99.90
16929;DHT22;8581;47.334;11.190;2023-04-01T12:59:45;11.60;99.90
16929;DHT22;8581;47.334;11.190;2023-04-01T13:02:34;11.80;99.90
16929;DHT22;8581;47.334;11.190;2023-04-01T13:08:22;11.00;99.90
16929;DHT22;8581;47.334;11.190;2023-04-01T13:10:44;11.20;99.90
16929;DHT22;8581;47.334;11.190;2023-04-01T13:13:31;11.10;99.90
16929;DHT22;8581;47.334;11.190;2023-04-01T13:16:07;10.80;99.90
16929;DHT22;8581;47.334;11.190;2023-04-01T13:21:20;10.70;99.90
16929;DHT22;8581;47.334;11.190;2023-04-01T13:23:56;11.00;99.90
16929;DHT22;8581;47.334;11.190;2023-04-01T13:27:18;11.20;99.90
16929;DHT22;8581;47.334;11.190;2023-04-01T13:29:34;11.20;99.90
16929;DHT22;8581;47.334;11.190;2023-04-01T13:32:24;11.30;99.90
16929;DHT22;8581;47.334;11.190;2023-04-01T13:35:08;11.40;99.90
16929;DHT22;8581;47.334;11.190;2023-04-01T13:37:52;11.70;99.90
16929;DHT22;8581;47.334;11.190;2023-04-01T13:40:43;12.40;99.90
16929;DHT22;8581;47.334;11.190;2023-04-01T13:43:23;12.70;99.90
16929;DHT22;8581;47.334;11.190;2023-04-01T13:46:16;12.50;99.90
16929;DHT22;8581;47.334;11.190;2023-04-01T13:49:02;12.10;99.90
16929;DHT22;8581;47.334;11.190;2023-04-01T13:54:40;12.60;99.90
16929;DHT22;8581;47.334;11.190;2023-04-01T13:58:22;12.30;99.90
16929;DHT22;8581;47.334;11.190;2023-04-01T14:00:22;11.80;99.90
16929;DHT22;8581;47.334;11.190;2023-04-01T14:03:07;11.60;99.90
16929;DHT22;8581;47.334;11.190;2023-04-01T14:05:44;11.10;99.90
16929;DHT22;8581;47.334;11.190;2023-04-01T14:08:20;10.80;99.90
16929;DHT22;8581;47.334;11.190;2023-04-01T14:11:38;10.20;99.90
16929;DHT22;8581;47.334;11.190;2023-04-01T14:14:09;9.90;99.90
16929;DHT22;8581;47.334;11.190;2023-04-01T14:16:48;9.80;99.90
16929;DHT22;8581;47.334;11.190;2023-04-01T14:19:26;10.10;99.90
16929;DHT22;8581;47.334;11.190;2023-04-01T14:22:03;10.30;99.90
16929;DHT22;8581;47.334;11.190;2023-04-01T14:24:42;10.20;99.90
16929;DHT22;8581;47.334;11.190;2023-04-01T14:27:24;10.70;99.90
16929;DHT22;8581;47.334;11.190;2023-04-01T14:30:01;10.50;99.90
16929;DHT22;8581;47.334;11.190;2023-04-01T14:35:35;10.50;99.90
16929;DHT22;8581;47.334;11.190;2023-04-01T14:38:17;10.50;99.90
16929;DHT22;8581;47.334;11.190;2023-04-01T14:49:04;10.20;99.90
16929;DHT22;8581;47.334;11.190;2023-04-01T14:51:35;10.40;99.90
16929;DHT22;8581;47.334;11.190;2023-04-01T14:54:15;10.50;99.90
16929;DHT22;8581;47.334;11.190;2023-04-01T14:56:47;11.00;99.90
16929;DHT22;8581;47.334;11.190;2023-04-01T14:59:32;11.50;99.90
16929;DHT22;8581;47.334;11.190;2023-04-01T15:02:11;12.00;99.90
16929;DHT22;8581;47.334;11.190;2023-04-01T15:10:49;11.20;99.90
16929;DHT22;8581;47.334;11.190;2023-04-01T15:14:37;11.10;99.90
16929;DHT22;8581;47.334;11.190;2023-04-01T15:16:44;11.40;99.90
16929;DHT22;8581;47.334;11.190;2023-04-01T15:19:20;10.60;99.90
16929;DHT22;8581;47.334;11.190;2023-04-01T15:21:54;10.60;99.90
16929;DHT22;8581;47.334;11.190;2023-04-01T15:24:23;10.40;99.90
16929;DHT22;8581;47.334;11.190;2023-04-01T15:27:10;10.30;99.90
16929;DHT22;8581;47.334;11.190;2023-04-01T15:30:16;10.00;99.90
16929;DHT22;8581;47.334;11.190;2023-04-01T15:35:18;9.50;99.90
16929;DHT22;8581;47.334;11.190;2023-04-01T15:37:53;9.70;99.90
16929;DHT22;8581;47.334;11.190;2023-04-01T15:40:30;9.60;99.90
16929;DHT22;8581;47.334;11.190;2023-04-01T15:43:27;9.40;99.90
16929;DHT22;8581;47.334;11.190;2023-04-01T15:46:12;9.30;99.90
16929;DHT22;8581;47.334;11.190;2023-04-01T15:52:49;10.60;99.90
16929;DHT22;8581;47.334;11.190;2023-04-01T15:54:37;11.30;99.90
16929;DHT22;8581;47.334;11.190;2023-04-01T15:57:15;11.20;99.90
16929;DHT22;8581;47.334;11.190;2023-04-01T15:59:53;11.00;99.90
16929;DHT22;8581;47.334;11.190;2023-04-01T16:02:31;10.70;99.90
16929;DHT22;8581;47.334;11.190;2023-04-01T16:05:24;10.60;99.90
16929;DHT22;8581;47.334;11.190;2023-04-01T16:07:57;9.90;99.90
16929;DHT22;8581;47.334;11.190;2023-04-01T16:10:44;9.80;99.90
16929;DHT22;8581;47.334;11.190;2023-04-01T16:13:41;9.90;99.90
16929;DHT22;8581;47.334;11.190;2023-04-01T16:16:49;10.10;99.90
16929;DHT22;8581;47.334;11.190;2023-04-01T16:19:11;9.60;99.90
16929;DHT22;8581;47.334;11.190;2023-04-01T16:22:02;9.50;99.90
16929;DHT22;8581;47.334;11.190;2023-04-01T16:24:51;9.20;99.90
16929;DHT22;8581;47.334;11.190;2023-04-01T16:27:40;9.20;99.90
16929;DHT22;8581;47.334;11.190;2023-04-01T16:30:26;9.10;99.90
16929;DHT22;8581;47.334;11.190;2023-04-01T16:33:01;9.30;99.90
16929;DHT22;8581;47.334;11.190;2023-04-01T16:38:22;9.20;99.90
16929;DHT22;8581;47.334;11.190;2023-04-01T16:43:40;8.90;99.90
16929;DHT22;8581;47.334;11.190;2023-04-01T16:46:20;8.70;99.90
16929;DHT22;8581;47.334;11.190;2023-04-01T16:51:47;8.60;99.90
16929;DHT22;8581;47.334;11.190;2023-04-01T16:54:28;8.60;99.90
16929;DHT22;8581;47.334;11.190;2023-04-01T16:57:18;8.40;99.90
16929;DHT22;8581;47.334;11.190;2023-04-01T16:59:58;8.40;99.90
16929;DHT22;8581;47.334;11.190;2023-04-01T17:02:42;8.30;99.90
16929;DHT22;8581;47.334;11.190;2023-04-01T17:05:13;8.00;99.90
16929;DHT22;8581;47.334;11.190;2023-04-01T17:13:34;8.00;99.90
16929;DHT22;8581;47.334;11.190;2023-04-01T17:19:28;7.90;99.90
16929;DHT22;8581;47.334;11.190;2023-04-01T17:22:17;7.90;99.90
16929;DHT22;8581;47.334;11.190;2023-04-01T17:27:34;7.70;99.90
16929;DHT22;8581;47.334;11.190;2023-04-01T17:30:13;7.50;99.90
16929;DHT22;8581;47.334;11.190;2023-04-01T17:33:15;7.00;99.90
16929;DHT22;8581;47.334;11.190;2023-04-01T17:35:48;7.10;99.90
16929;DHT22;8581;47.334;11.190;2023-04-01T17:38:21;7.10;99.90
16929;DHT22;8581;47.334;11.190;2023-04-01T17:40:56;6.70;99.90
16929;DHT22;8581;47.334;11.190;2023-04-01T17:43:47;6.50;99.90
16929;DHT22;8581;47.334;11.190;2023-04-01T17:47:18;6.60;99.90
16929;DHT22;8581;47.334;11.190;2023-04-01T17:52:53;6.60;99.90
16929;DHT22;8581;47.334;11.190;2023-04-01T17:55:37;6.40;99.90
16929;DHT22;8581;47.334;11.190;2023-04-01T17:58:11;6.40;99.90
16929;DHT22;8581;47.334;11.190;2023-04-01T18:01:09;6.40;99.90
16929;DHT22;8581;47.334;11.190;2023-04-01T18:06:34;6.20;99.90
16929;DHT22;8581;47.334;11.190;2023-04-01T18:09:18;6.10;99.90
16929;DHT22;8581;47.334;11.190;2023-04-01T18:11:58;6.20;99.90
16929;DHT22;8581;47.334;11.190;2023-04-01T18:17:16;5.80;99.90
16929;DHT22;8581;47.334;11.190;2023-04-01T18:22:45;5.70;99.90
16929;DHT22;8581;47.334;11.190;2023-04-01T18:25:33;5.80;99.90
16929;DHT22;8581;47.334;11.190;2023-04-01T18:30:44;6.10;99.90
16929;DHT22;8581;47.334;11.190;2023-04-01T18:33:19;5.90;99.90
16929;DHT22;8581;47.334;11.190;2023-04-01T18:35:59;5.70;99.90
16929;DHT22;8581;47.334;11.190;2023-04-01T18:38:36;5.70;99.90
16929;DHT22;8581;47.334;11.190;2023-04-01T18:41:12;5.80;99.90
16929;DHT22;8581;47.334;11.190;2023-04-01T18:46:26;5.80;99.90
16929;DHT22;8581;47.334;11.190;2023-04-01T18:51:57;5.90;99.90
16929;DHT22;8581;47.334;11.190;2023-04-01T18:54:30;5.90;99.90
16929;DHT22;8581;47.334;11.190;2023-04-01T18:57:10;6.00;99.90
16929;DHT22;8581;47.334;11.190;2023-04-01T18:59:42;5.90;99.90
16929;DHT22;8581;47.334;11.190;2023-04-01T19:02:31;6.00;99.90
16929;DHT22;8581;47.334;11.190;2023-04-01T19:05:20;5.90;99.90
16929;DHT22;8581;47.334;11.190;2023-04-01T19:07:52;5.70;99.90
16929;DHT22;8581;47.334;11.190;2023-04-01T19:10:40;5.80;99.90
16929;DHT22;8581;47.334;11.190;2023-04-01T19:14:19;5.70;99.90
16929;DHT22;8581;47.334;11.190;2023-04-01T19:16:17;5.60;99.90
16929;DHT22;8581;47.334;11.190;2023-04-01T19:21:33;5.70;99.90
16929;DHT22;8581;47.334;11.190;2023-04-01T19:24:25;5.90;99.90
16929;DHT22;8581;47.334;11.190;2023-04-01T19:27:02;5.80;99.90
16929;DHT22;8581;47.334;11.190;2023-04-01T19:29:52;5.60;99.90
16929;DHT22;8581;47.334;11.190;2023-04-01T19:35:23;5.40;99.90
16929;DHT22;8581;47.334;11.190;2023-04-01T19:38:11;5.40;99.90
16929;DHT22;8581;47.334;11.190;2023-04-01T19:40:52;5.50;99.90
16929;DHT22;8581;47.334;11.190;2023-04-01T19:44:34;5.40;99.90
16929;DHT22;8581;47.334;11.190;2023-04-01T19:46:16;5.40;99.90
16929;DHT22;8581;47.334;11.190;2023-04-01T19:48:54;5.30;99.90
16929;DHT22;8581;47.334;11.190;2023-04-01T19:51:37;5.00;99.90
16929;DHT22;8581;47.334;11.190;2023-04-01T19:54:24;5.00;99.90
16929;DHT22;8581;47.334;11.190;2023-04-01T19:57:00;5.10;99.90
16929;DHT22;8581;47.334;11.190;2023-04-01T19:59:34;5.10;99.90